sensor_id;sensor_type;location;lat;lon;timestamp;pressure;altitude;pressure_sealevel;temperature;humidity
58662;BME280;44432;49.786;22.760;2022-08-25T00:01:16;99493.05;;;19.02;79.18
58662;BME280;44432;49.786;22.760;2022-08-25T00:03:47;99493.23;;;18.99;79.21
58662;BME280;44432;49.786;22.760;2022-08-25T00:06:18;99492.27;;;18.96;79.22
58662;BME280;44432;49.786;22.760;2022-08-25T00:08:50;99489.74;;;18.93;79.24
58662;BME280;44432;49.786;22.760;2022-08-25T00:11:22;99487.85;;;18.90;79.28
58662;BME280;44432;49.786;22.760;2022-08-25T00:13:56;99489.40;;;18.86;79.43
58662;BME280;44432;49.786;22.760;2022-08-25T00:16:29;99490.98;;;18.83;79.54
58662;BME280;44432;49.786;22.760;2022-08-25T00:19:04;99487.70;;;18.80;79.67
58662;BME280;44432;49.786;22.760;2022-08-25T00:21:35;99490.20;;;18.77;79.79
58662;BME280;44432;49.786;22.760;2022-08-25T00:24:07;99495.66;;;18.76;79.93
58662;BME280;44432;49.786;22.760;2022-08-25T00:26:41;99493.77;;;18.74;80.05
58662;BME280;44432;49.786;22.760;2022-08-25T00:29:12;99493.73;;;18.72;80.13
58662;BME280;44432;49.786;22.760;2022-08-25T00:31:43;99496.02;;;18.72;80.21
58662;BME280;44432;49.786;22.760;2022-08-25T00:34:17;99496.89;;;18.72;80.35
58662;BME280;44432;49.786;22.760;2022-08-25T00:36:48;99498.01;;;18.70;80.42
58662;BME280;44432;49.786;22.760;2022-08-25T00:39:21;99493.94;;;18.67;80.46
58662;BME280;44432;49.786;22.760;2022-08-25T00:41:54;99496.77;;;18.65;80.55
58662;BME280;44432;49.786;22.760;2022-08-25T00:44:28;99495.56;;;18.63;80.65
58662;BME280;44432;49.786;22.760;2022-08-25T00:47:01;99492.61;;;18.61;80.70
58662;BME280;44432;49.786;22.760;2022-08-25T00:49:38;99490.56;;;18.58;80.87
58662;BME280;44432;49.786;22.760;2022-08-25T00:52:11;99490.48;;;18.57;80.94
58662;BME280;44432;49.786;22.760;2022-08-25T00:54:46;99492.14;;;18.56;80.97
58662;BME280;44432;49.786;22.760;2022-08-25T00:57:22;99486.13;;;18.54;81.07
58662;BME280;44432;49.786;22.760;2022-08-25T00:59:54;99487.34;;;18.51;81.00
58662;BME280;44432;49.786;22.760;2022-08-25T01:02:25;99490.00;;;18.48;81.16
58662;BME280;44432;49.786;22.760;2022-08-25T01:04:56;99492.92;;;18.45;81.13
58662;BME280;44432;49.786;22.760;2022-08-25T01:07:27;99490.71;;;18.42;81.23
58662;BME280;44432;49.786;22.760;2022-08-25T01:09:58;99491.66;;;18.40;81.34
58662;BME280;44432;49.786;22.760;2022-08-25T01:12:29;99493.73;;;18.38;81.40
58662;BME280;44432;49.786;22.760;2022-08-25T01:15:00;99496.72;;;18.36;81.40
58662;BME280;44432;49.786;22.760;2022-08-25T01:17:38;99496.80;;;18.33;81.37
58662;BME280;44432;49.786;22.760;2022-08-25T01:20:14;99495.52;;;18.32;81.51
58662;BME280;44432;49.786;22.760;2022-08-25T01:22:47;99499.14;;;18.31;81.50
58662;BME280;44432;49.786;22.760;2022-08-25T01:25:25;99498.48;;;18.28;81.52
58662;BME280;44432;49.786;22.760;2022-08-25T01:27:57;99502.21;;;18.25;81.51
58662;BME280;44432;49.786;22.760;2022-08-25T01:30:28;99499.31;;;18.24;81.57
58662;BME280;44432;49.786;22.760;2022-08-25T01:33:00;99499.55;;;18.21;81.62
58662;BME280;44432;49.786;22.760;2022-08-25T01:35:32;99500.77;;;18.19;81.66
58662;BME280;44432;49.786;22.760;2022-08-25T01:38:03;99501.45;;;18.16;81.59
58662;BME280;44432;49.786;22.760;2022-08-25T01:40:36;99500.84;;;18.13;81.61
58662;BME280;44432;49.786;22.760;2022-08-25T01:43:25;99502.20;;;18.10;81.68
58662;BME280;44432;49.786;22.760;2022-08-25T01:45:59;99502.39;;;18.06;81.64
58662;BME280;44432;49.786;22.760;2022-08-25T01:48:30;99500.71;;;18.05;81.76
58662;BME280;44432;49.786;22.760;2022-08-25T01:51:01;99499.89;;;18.02;81.85
58662;BME280;44432;49.786;22.760;2022-08-25T01:53:32;99495.29;;;18.01;81.92
58662;BME280;44432;49.786;22.760;2022-08-25T01:56:10;99493.24;;;17.98;81.88
58662;BME280;44432;49.786;22.760;2022-08-25T01:58:43;99495.70;;;17.98;82.03
58662;BME280;44432;49.786;22.760;2022-08-25T02:01:17;99495.52;;;17.95;81.95
58662;BME280;44432;49.786;22.760;2022-08-25T02:03:50;99496.83;;;17.92;82.07
58662;BME280;44432;49.786;22.760;2022-08-25T02:06:22;99496.27;;;17.90;82.05
58662;BME280;44432;49.786;22.760;2022-08-25T02:08:57;99497.97;;;17.88;82.13
58662;BME280;44432;49.786;22.760;2022-08-25T02:11:29;99498.48;;;17.87;82.33
58662;BME280;44432;49.786;22.760;2022-08-25T02:14:00;99499.57;;;17.88;82.37
58662;BME280;44432;49.786;22.760;2022-08-25T02:16:33;99506.13;;;17.86;82.46
58662;BME280;44432;49.786;22.760;2022-08-25T02:19:06;99501.89;;;17.85;82.54
58662;BME280;44432;49.786;22.760;2022-08-25T02:21:36;99504.17;;;17.83;82.48
58662;BME280;44432;49.786;22.760;2022-08-25T02:24:09;99502.79;;;17.77;82.75
58662;BME280;44432;49.786;22.760;2022-08-25T02:26:40;99505.39;;;17.76;82.76
58662;BME280;44432;49.786;22.760;2022-08-25T02:29:11;99507.79;;;17.75;82.84
58662;BME280;44432;49.786;22.760;2022-08-25T02:31:42;99505.64;;;17.73;82.95
58662;BME280;44432;49.786;22.760;2022-08-25T02:34:13;99509.67;;;17.70;82.81
58662;BME280;44432;49.786;22.760;2022-08-25T02:36:44;99510.35;;;17.66;82.81
58662;BME280;44432;49.786;22.760;2022-08-25T02:39:15;99507.89;;;17.63;82.92
58662;BME280;44432;49.786;22.760;2022-08-25T02:41:45;99509.05;;;17.61;83.00
58662;BME280;44432;49.786;22.760;2022-08-25T02:44:16;99508.39;;;17.59;83.00
58662;BME280;44432;49.786;22.760;2022-08-25T02:46:46;99506.07;;;17.57;83.09
58662;BME280;44432;49.786;22.760;2022-08-25T02:49:17;99513.11;;;17.56;83.11
58662;BME280;44432;49.786;22.760;2022-08-25T02:51:47;99509.45;;;17.54;83.35
58662;BME280;44432;49.786;22.760;2022-08-25T02:54:18;99511.39;;;17.54;83.38
58662;BME280;44432;49.786;22.760;2022-08-25T02:56:51;99511.42;;;17.53;83.37
58662;BME280;44432;49.786;22.760;2022-08-25T02:59:21;99510.09;;;17.53;83.51
58662;BME280;44432;49.786;22.760;2022-08-25T03:01:52;99512.53;;;17.52;83.56
58662;BME280;44432;49.786;22.760;2022-08-25T03:04:22;99510.77;;;17.52;83.72
58662;BME280;44432;49.786;22.760;2022-08-25T03:06:53;99507.14;;;17.52;83.83
58662;BME280;44432;49.786;22.760;2022-08-25T03:09:23;99503.95;;;17.53;83.90
58662;BME280;44432;49.786;22.760;2022-08-25T03:11:55;99501.17;;;17.52;83.93
58662;BME280;44432;49.786;22.760;2022-08-25T03:14:26;99502.71;;;17.52;83.81
58662;BME280;44432;49.786;22.760;2022-08-25T03:16:56;99503.39;;;17.50;83.82
58662;BME280;44432;49.786;22.760;2022-08-25T03:19:27;99505.66;;;17.49;83.98
58662;BME280;44432;49.786;22.760;2022-08-25T03:21:58;99504.96;;;17.48;84.12
58662;BME280;44432;49.786;22.760;2022-08-25T03:24:29;99507.92;;;17.49;84.13
58662;BME280;44432;49.786;22.760;2022-08-25T03:26:59;99510.36;;;17.49;84.20
58662;BME280;44432;49.786;22.760;2022-08-25T03:29:32;99510.69;;;17.49;84.30
58662;BME280;44432;49.786;22.760;2022-08-25T03:32:04;99510.95;;;17.48;84.17
58662;BME280;44432;49.786;22.760;2022-08-25T03:34:34;99509.33;;;17.46;84.32
58662;BME280;44432;49.786;22.760;2022-08-25T03:37:05;99509.10;;;17.46;84.42
58662;BME280;44432;49.786;22.760;2022-08-25T03:39:36;99505.95;;;17.45;84.49
58662;BME280;44432;49.786;22.760;2022-08-25T03:42:08;99514.36;;;17.48;84.51
58662;BME280;44432;49.786;22.760;2022-08-25T03:44:39;99510.31;;;17.49;84.50
58662;BME280;44432;49.786;22.760;2022-08-25T03:47:09;99511.00;;;17.48;84.54
58662;BME280;44432;49.786;22.760;2022-08-25T03:49:41;99509.67;;;17.50;84.59
58662;BME280;44432;49.786;22.760;2022-08-25T03:52:12;99509.70;;;17.50;84.49
58662;BME280;44432;49.786;22.760;2022-08-25T03:54:43;99510.80;;;17.49;84.38
58662;BME280;44432;49.786;22.760;2022-08-25T03:57:13;99506.45;;;17.48;84.12
58662;BME280;44432;49.786;22.760;2022-08-25T03:59:44;99511.09;;;17.47;84.14
58662;BME280;44432;49.786;22.760;2022-08-25T04:02:15;99510.48;;;17.45;84.04
58662;BME280;44432;49.786;22.760;2022-08-25T04:04:45;99512.38;;;17.42;83.96
58662;BME280;44432;49.786;22.760;2022-08-25T04:07:16;99510.08;;;17.42;84.04
58662;BME280;44432;49.786;22.760;2022-08-25T04:09:47;99505.44;;;17.42;84.20
58662;BME280;44432;49.786;22.760;2022-08-25T04:12:17;99503.66;;;17.41;84.05
58662;BME280;44432;49.786;22.760;2022-08-25T04:14:48;99504.73;;;17.42;84.06
58662;BME280;44432;49.786;22.760;2022-08-25T04:17:19;99508.50;;;17.44;84.20
58662;BME280;44432;49.786;22.760;2022-08-25T04:19:51;99505.95;;;17.45;84.22
58662;BME280;44432;49.786;22.760;2022-08-25T04:22:21;99504.83;;;17.46;84.01
58662;BME280;44432;49.786;22.760;2022-08-25T04:24:52;99504.85;;;17.48;84.09
58662;BME280;44432;49.786;22.760;2022-08-25T04:27:23;99502.20;;;17.50;84.03
58662;BME280;44432;49.786;22.760;2022-08-25T04:29:53;99503.23;;;17.50;83.93
58662;BME280;44432;49.786;22.760;2022-08-25T04:32:24;99505.11;;;17.51;84.00
58662;BME280;44432;49.786;22.760;2022-08-25T04:34:56;99498.80;;;17.51;83.69
58662;BME280;44432;49.786;22.760;2022-08-25T04:37:26;99509.72;;;17.53;83.62
58662;BME280;44432;49.786;22.760;2022-08-25T04:39:57;99509.67;;;17.55;83.75
58662;BME280;44432;49.786;22.760;2022-08-25T04:42:28;99506.79;;;17.59;83.69
58662;BME280;44432;49.786;22.760;2022-08-25T04:44:58;99502.88;;;17.64;83.67
58662;BME280;44432;49.786;22.760;2022-08-25T04:47:30;99502.52;;;17.69;83.78
58662;BME280;44432;49.786;22.760;2022-08-25T04:50:00;99500.79;;;17.74;83.73
58662;BME280;44432;49.786;22.760;2022-08-25T04:52:32;99501.96;;;17.80;83.53
58662;BME280;44432;49.786;22.760;2022-08-25T04:55:03;99498.30;;;17.84;83.50
58662;BME280;44432;49.786;22.760;2022-08-25T04:57:33;99497.22;;;17.88;83.40
58662;BME280;44432;49.786;22.760;2022-08-25T05:00:06;99495.40;;;17.94;83.29
58662;BME280;44432;49.786;22.760;2022-08-25T05:02:37;99488.92;;;17.98;83.19
58662;BME280;44432;49.786;22.760;2022-08-25T05:05:08;99489.64;;;18.03;83.11
58662;BME280;44432;49.786;22.760;2022-08-25T05:07:39;99488.36;;;18.10;83.18
58662;BME280;44432;49.786;22.760;2022-08-25T05:10:10;99483.07;;;18.17;83.12
58662;BME280;44432;49.786;22.760;2022-08-25T05:12:40;99487.17;;;18.23;82.94
58662;BME280;44432;49.786;22.760;2022-08-25T05:15:12;99484.44;;;18.30;82.78
58662;BME280;44432;49.786;22.760;2022-08-25T05:18:00;99487.04;;;18.35;82.49
58662;BME280;44432;49.786;22.760;2022-08-25T05:20:30;99488.45;;;18.40;82.57
58662;BME280;44432;49.786;22.760;2022-08-25T05:23:01;99490.48;;;18.48;82.49
58662;BME280;44432;49.786;22.760;2022-08-25T05:25:33;99486.73;;;18.54;82.32
58662;BME280;44432;49.786;22.760;2022-08-25T05:28:04;99489.29;;;18.61;82.07
58662;BME280;44432;49.786;22.760;2022-08-25T05:30:37;99493.61;;;18.67;82.07
58662;BME280;44432;49.786;22.760;2022-08-25T05:33:09;99493.58;;;18.76;82.09
58662;BME280;44432;49.786;22.760;2022-08-25T05:35:41;99493.83;;;18.85;81.94
58662;BME280;44432;49.786;22.760;2022-08-25T05:38:11;99493.54;;;18.92;81.69
58662;BME280;44432;49.786;22.760;2022-08-25T05:40:42;99501.60;;;19.01;81.61
58662;BME280;44432;49.786;22.760;2022-08-25T05:43:12;99499.60;;;19.09;81.38
58662;BME280;44432;49.786;22.760;2022-08-25T05:45:44;99501.23;;;19.18;81.32
58662;BME280;44432;49.786;22.760;2022-08-25T05:48:14;99498.47;;;19.26;81.16
58662;BME280;44432;49.786;22.760;2022-08-25T05:50:53;99499.04;;;19.36;80.82
58662;BME280;44432;49.786;22.760;2022-08-25T05:53:25;99497.76;;;19.42;80.61
58662;BME280;44432;49.786;22.760;2022-08-25T05:55:57;99495.90;;;19.48;80.62
58662;BME280;44432;49.786;22.760;2022-08-25T05:58:30;99501.94;;;19.54;80.41
58662;BME280;44432;49.786;22.760;2022-08-25T06:01:00;99509.45;;;19.58;80.08
58662;BME280;44432;49.786;22.760;2022-08-25T06:03:52;99511.27;;;19.64;79.98
58662;BME280;44432;49.786;22.760;2022-08-25T06:06:23;99512.40;;;19.69;79.87
58662;BME280;44432;49.786;22.760;2022-08-25T06:08:54;99510.73;;;19.76;79.99
58662;BME280;44432;49.786;22.760;2022-08-25T06:11:24;99510.25;;;19.81;79.57
58662;BME280;44432;49.786;22.760;2022-08-25T06:13:55;99512.88;;;19.86;79.20
58662;BME280;44432;49.786;22.760;2022-08-25T06:16:26;99514.75;;;19.90;79.15
58662;BME280;44432;49.786;22.760;2022-08-25T06:18:57;99512.98;;;19.93;78.91
58662;BME280;44432;49.786;22.760;2022-08-25T06:21:27;99511.53;;;19.94;78.60
58662;BME280;44432;49.786;22.760;2022-08-25T06:23:58;99513.79;;;19.96;78.70
58662;BME280;44432;49.786;22.760;2022-08-25T06:26:29;99512.23;;;19.98;78.73
58662;BME280;44432;49.786;22.760;2022-08-25T06:29:00;99514.43;;;20.00;78.58
58662;BME280;44432;49.786;22.760;2022-08-25T06:31:30;99514.11;;;20.03;78.81
58662;BME280;44432;49.786;22.760;2022-08-25T06:34:01;99519.05;;;20.09;78.88
58662;BME280;44432;49.786;22.760;2022-08-25T06:36:32;99522.41;;;20.16;78.84
58662;BME280;44432;49.786;22.760;2022-08-25T06:39:03;99523.00;;;20.20;78.66
58662;BME280;44432;49.786;22.760;2022-08-25T06:41:34;99521.50;;;20.23;78.58
58662;BME280;44432;49.786;22.760;2022-08-25T06:44:05;99521.86;;;20.30;78.70
58662;BME280;44432;49.786;22.760;2022-08-25T06:46:35;99521.38;;;20.33;78.59
58662;BME280;44432;49.786;22.760;2022-08-25T06:49:07;99522.46;;;20.39;78.80
58662;BME280;44432;49.786;22.760;2022-08-25T06:51:37;99524.98;;;20.45;78.76
58662;BME280;44432;49.786;22.760;2022-08-25T06:54:10;99524.80;;;20.54;78.80
58662;BME280;44432;49.786;22.760;2022-08-25T06:56:41;99524.52;;;20.64;78.81
58662;BME280;44432;49.786;22.760;2022-08-25T06:59:12;99524.28;;;20.72;78.47
58662;BME280;44432;49.786;22.760;2022-08-25T07:01:43;99525.36;;;20.80;78.31
58662;BME280;44432;49.786;22.760;2022-08-25T07:04:14;99526.66;;;20.90;78.30
58662;BME280;44432;49.786;22.760;2022-08-25T07:06:44;99526.14;;;21.01;78.35
58662;BME280;44432;49.786;22.760;2022-08-25T07:09:15;99527.49;;;21.12;78.08
58662;BME280;44432;49.786;22.760;2022-08-25T07:11:46;99522.04;;;21.23;77.98
58662;BME280;44432;49.786;22.760;2022-08-25T07:14:17;99521.13;;;21.34;77.82
58662;BME280;44432;49.786;22.760;2022-08-25T07:16:48;99520.80;;;21.45;77.57
58662;BME280;44432;49.786;22.760;2022-08-25T07:19:19;99519.54;;;21.58;77.31
58662;BME280;44432;49.786;22.760;2022-08-25T07:21:52;99516.34;;;21.70;77.10
58662;BME280;44432;49.786;22.760;2022-08-25T07:24:21;99518.45;;;21.77;76.36
58662;BME280;44432;49.786;22.760;2022-08-25T07:26:52;99515.73;;;21.80;75.97
58662;BME280;44432;49.786;22.760;2022-08-25T07:29:25;99514.83;;;21.80;75.74
58662;BME280;44432;49.786;22.760;2022-08-25T07:31:56;99513.14;;;21.81;75.73
58662;BME280;44432;49.786;22.760;2022-08-25T07:34:27;99514.92;;;21.90;75.52
58662;BME280;44432;49.786;22.760;2022-08-25T07:37:16;99511.73;;;22.02;75.57
58662;BME280;44432;49.786;22.760;2022-08-25T07:39:46;99512.14;;;22.12;75.33
58662;BME280;44432;49.786;22.760;2022-08-25T07:42:17;99511.48;;;22.21;75.45
58662;BME280;44432;49.786;22.760;2022-08-25T07:44:48;99511.14;;;22.34;75.40
58662;BME280;44432;49.786;22.760;2022-08-25T07:47:18;99512.02;;;22.48;75.14
58662;BME280;44432;49.786;22.760;2022-08-25T07:49:49;99511.58;;;22.59;74.66
58662;BME280;44432;49.786;22.760;2022-08-25T07:52:20;99511.08;;;22.72;74.43
58662;BME280;44432;49.786;22.760;2022-08-25T07:54:51;99511.82;;;22.84;74.30
58662;BME280;44432;49.786;22.760;2022-08-25T07:57:23;99512.32;;;22.94;73.81
58662;BME280;44432;49.786;22.760;2022-08-25T07:59:55;99513.90;;;23.01;73.34
58662;BME280;44432;49.786;22.760;2022-08-25T08:02:26;99513.70;;;23.09;73.18
58662;BME280;44432;49.786;22.760;2022-08-25T08:04:59;99515.10;;;23.17;72.67
58662;BME280;44432;49.786;22.760;2022-08-25T08:07:29;99507.69;;;23.23;72.73
58662;BME280;44432;49.786;22.760;2022-08-25T08:10:01;99511.34;;;23.36;72.66
58662;BME280;44432;49.786;22.760;2022-08-25T08:12:34;99512.95;;;23.48;72.24
58662;BME280;44432;49.786;22.760;2022-08-25T08:15:06;99514.99;;;23.58;71.91
58662;BME280;44432;49.786;22.760;2022-08-25T08:17:37;99515.23;;;23.67;71.45
58662;BME280;44432;49.786;22.760;2022-08-25T08:20:10;99514.86;;;23.74;70.92
58662;BME280;44432;49.786;22.760;2022-08-25T08:22:42;99516.29;;;23.79;70.72
58662;BME280;44432;49.786;22.760;2022-08-25T08:25:13;99515.79;;;23.84;70.22
58662;BME280;44432;49.786;22.760;2022-08-25T08:27:44;99516.40;;;23.92;70.15
58662;BME280;44432;49.786;22.760;2022-08-25T08:30:15;99517.02;;;24.02;69.89
58662;BME280;44432;49.786;22.760;2022-08-25T08:32:46;99513.11;;;24.13;69.73
58662;BME280;44432;49.786;22.760;2022-08-25T08:35:18;99510.17;;;24.25;69.12
58662;BME280;44432;49.786;22.760;2022-08-25T08:37:49;99511.41;;;24.35;68.95
58662;BME280;44432;49.786;22.760;2022-08-25T08:40:20;99509.44;;;24.49;68.81
58662;BME280;44432;49.786;22.760;2022-08-25T08:42:58;99508.15;;;24.58;67.45
58662;BME280;44432;49.786;22.760;2022-08-25T08:45:37;99509.37;;;24.61;67.38
58662;BME280;44432;49.786;22.760;2022-08-25T08:48:24;99507.81;;;24.74;67.60
58662;BME280;44432;49.786;22.760;2022-08-25T08:51:09;99504.39;;;24.89;67.16
58662;BME280;44432;49.786;22.760;2022-08-25T08:53:45;99503.06;;;25.01;66.26
58662;BME280;44432;49.786;22.760;2022-08-25T08:56:21;99502.39;;;25.10;65.12
58662;BME280;44432;49.786;22.760;2022-08-25T08:58:54;99508.11;;;25.21;65.02
58662;BME280;44432;49.786;22.760;2022-08-25T09:01:29;99505.15;;;25.27;64.53
58662;BME280;44432;49.786;22.760;2022-08-25T09:04:07;99508.69;;;25.34;64.15
58662;BME280;44432;49.786;22.760;2022-08-25T09:06:40;99502.81;;;25.42;63.57
58662;BME280;44432;49.786;22.760;2022-08-25T09:09:13;99498.50;;;25.47;63.06
58662;BME280;44432;49.786;22.760;2022-08-25T09:11:56;99494.86;;;25.57;63.08
58662;BME280;44432;49.786;22.760;2022-08-25T09:14:42;99495.85;;;25.69;62.77
58662;BME280;44432;49.786;22.760;2022-08-25T09:17:19;99494.52;;;25.84;62.17
58662;BME280;44432;49.786;22.760;2022-08-25T09:20:10;99494.81;;;25.94;61.58
58662;BME280;44432;49.786;22.760;2022-08-25T09:22:55;99497.77;;;26.07;60.65
58662;BME280;44432;49.786;22.760;2022-08-25T09:25:35;99490.33;;;26.16;59.78
58662;BME280;44432;49.786;22.760;2022-08-25T09:28:17;99489.42;;;26.28;59.51
58662;BME280;44432;49.786;22.760;2022-08-25T09:30:59;99483.57;;;26.40;58.88
58662;BME280;44432;49.786;22.760;2022-08-25T09:33:32;99485.38;;;26.55;58.37
58662;BME280;44432;49.786;22.760;2022-08-25T09:36:04;99480.81;;;26.67;57.77
58662;BME280;44432;49.786;22.760;2022-08-25T09:38:35;99479.36;;;26.81;57.06
58662;BME280;44432;49.786;22.760;2022-08-25T09:41:07;99472.79;;;26.92;56.46
58662;BME280;44432;49.786;22.760;2022-08-25T09:43:43;99476.68;;;27.04;55.40
58662;BME280;44432;49.786;22.760;2022-08-25T09:46:15;99465.73;;;27.10;54.61
58662;BME280;44432;49.786;22.760;2022-08-25T09:48:49;99470.15;;;27.19;54.32
58662;BME280;44432;49.786;22.760;2022-08-25T09:51:28;99465.71;;;27.29;53.70
58662;BME280;44432;49.786;22.760;2022-08-25T09:54:02;99462.70;;;27.40;53.32
58662;BME280;44432;49.786;22.760;2022-08-25T09:56:33;99455.93;;;27.45;52.27
58662;BME280;44432;49.786;22.760;2022-08-25T09:59:22;99454.50;;;27.49;51.95
58662;BME280;44432;49.786;22.760;2022-08-25T10:01:55;99455.42;;;27.58;51.54
58662;BME280;44432;49.786;22.760;2022-08-25T10:04:28;99450.27;;;27.67;51.28
58662;BME280;44432;49.786;22.760;2022-08-25T10:07:01;99449.00;;;27.77;50.98
58662;BME280;44432;49.786;22.760;2022-08-25T10:09:36;99445.86;;;27.87;50.18
58662;BME280;44432;49.786;22.760;2022-08-25T10:12:18;99448.91;;;27.95;49.32
58662;BME280;44432;49.786;22.760;2022-08-25T10:14:52;99447.27;;;28.00;48.55
58662;BME280;44432;49.786;22.760;2022-08-25T10:17:27;99445.02;;;28.02;47.92
58662;BME280;44432;49.786;22.760;2022-08-25T10:20:16;99434.19;;;28.07;47.83
58662;BME280;44432;49.786;22.760;2022-08-25T10:22:49;99440.11;;;28.10;46.98
58662;BME280;44432;49.786;22.760;2022-08-25T10:25:23;99433.44;;;28.13;47.32
58662;BME280;44432;49.786;22.760;2022-08-25T10:28:07;99433.55;;;28.23;46.09
58662;BME280;44432;49.786;22.760;2022-08-25T10:30:54;99427.11;;;28.34;45.61
58662;BME280;44432;49.786;22.760;2022-08-25T10:33:33;99429.91;;;28.48;45.11
58662;BME280;44432;49.786;22.760;2022-08-25T10:36:13;99427.55;;;28.57;44.51
58662;BME280;44432;49.786;22.760;2022-08-25T10:38:51;99419.89;;;28.65;44.41
58662;BME280;44432;49.786;22.760;2022-08-25T10:41:32;99421.64;;;28.74;44.04
58662;BME280;44432;49.786;22.760;2022-08-25T10:44:15;99418.33;;;28.83;43.38
58662;BME280;44432;49.786;22.760;2022-08-25T10:47:32;99419.56;;;28.92;42.63
58662;BME280;44432;49.786;22.760;2022-08-25T10:50:12;99410.31;;;29.02;42.23
58662;BME280;44432;49.786;22.760;2022-08-25T10:55:46;99415.27;;;29.23;41.58
58662;BME280;44432;49.786;22.760;2022-08-25T10:58:24;99409.45;;;29.30;41.26
58662;BME280;44432;49.786;22.760;2022-08-25T11:01:06;99401.29;;;29.37;41.15
58662;BME280;44432;49.786;22.760;2022-08-25T11:03:47;99403.27;;;29.48;41.09
58662;BME280;44432;49.786;22.760;2022-08-25T11:06:34;99403.89;;;29.59;40.58
58662;BME280;44432;49.786;22.760;2022-08-25T11:09:09;99403.45;;;29.68;40.75
58662;BME280;44432;49.786;22.760;2022-08-25T11:11:46;99402.88;;;29.77;40.14
58662;BME280;44432;49.786;22.760;2022-08-25T11:14:22;99404.42;;;29.83;39.46
58662;BME280;44432;49.786;22.760;2022-08-25T11:16:58;99398.02;;;29.85;39.71
58662;BME280;44432;49.786;22.760;2022-08-25T11:19:33;99399.64;;;29.89;39.40
58662;BME280;44432;49.786;22.760;2022-08-25T11:22:11;99396.70;;;29.91;38.19
58662;BME280;44432;49.786;22.760;2022-08-25T11:24:52;99399.42;;;29.94;38.30
58662;BME280;44432;49.786;22.760;2022-08-25T11:27:30;99391.77;;;29.98;38.27
58662;BME280;44432;49.786;22.760;2022-08-25T11:30:08;99391.75;;;29.99;37.84
58662;BME280;44432;49.786;22.760;2022-08-25T11:32:42;99393.00;;;30.04;37.79
58662;BME280;44432;49.786;22.760;2022-08-25T11:35:15;99386.72;;;30.06;37.51
58662;BME280;44432;49.786;22.760;2022-08-25T11:38:01;99380.91;;;30.10;37.56
58662;BME280;44432;49.786;22.760;2022-08-25T11:40:51;99383.99;;;30.14;37.11
58662;BME280;44432;49.786;22.760;2022-08-25T11:43:47;99378.30;;;30.19;36.95
58662;BME280;44432;49.786;22.760;2022-08-25T11:46:29;99377.14;;;30.26;37.04
58662;BME280;44432;49.786;22.760;2022-08-25T11:49:31;99372.45;;;30.35;36.34
58662;BME280;44432;49.786;22.760;2022-08-25T11:52:09;99370.27;;;30.40;36.13
58662;BME280;44432;49.786;22.760;2022-08-25T11:55:06;99367.29;;;30.44;35.72
58662;BME280;44432;49.786;22.760;2022-08-25T11:57:38;99366.89;;;30.47;35.43
58662;BME280;44432;49.786;22.760;2022-08-25T12:00:13;99363.63;;;30.52;35.38
58662;BME280;44432;49.786;22.760;2022-08-25T12:02:47;99353.04;;;30.54;35.27
58662;BME280;44432;49.786;22.760;2022-08-25T12:05:50;99354.70;;;30.57;34.94
58662;BME280;44432;49.786;22.760;2022-08-25T12:11:43;99348.29;;;30.61;34.58
58662;BME280;44432;49.786;22.760;2022-08-25T12:14:36;99349.87;;;30.65;34.10
58662;BME280;44432;49.786;22.760;2022-08-25T12:17:20;99342.89;;;30.71;33.53
58662;BME280;44432;49.786;22.760;2022-08-25T12:19:59;99343.73;;;30.76;33.04
58662;BME280;44432;49.786;22.760;2022-08-25T12:22:56;99340.71;;;30.82;33.03
58662;BME280;44432;49.786;22.760;2022-08-25T12:25:45;99342.71;;;30.89;32.54
58662;BME280;44432;49.786;22.760;2022-08-25T12:28:35;99339.89;;;30.91;31.96
58662;BME280;44432;49.786;22.760;2022-08-25T12:31:21;99337.25;;;30.94;31.90
58662;BME280;44432;49.786;22.760;2022-08-25T12:34:07;99336.30;;;30.99;32.15
58662;BME280;44432;49.786;22.760;2022-08-25T12:36:40;99332.58;;;31.03;31.66
58662;BME280;44432;49.786;22.760;2022-08-25T12:39:30;99329.36;;;31.02;31.62
58662;BME280;44432;49.786;22.760;2022-08-25T12:42:03;99328.65;;;31.04;31.21
58662;BME280;44432;49.786;22.760;2022-08-25T12:44:41;99329.82;;;31.04;31.33
58662;BME280;44432;49.786;22.760;2022-08-25T12:47:26;99326.77;;;31.09;31.69
58662;BME280;44432;49.786;22.760;2022-08-25T12:53:21;99322.89;;;31.24;30.88
58662;BME280;44432;49.786;22.760;2022-08-25T12:55:59;99318.08;;;31.28;30.71
58662;BME280;44432;49.786;22.760;2022-08-25T12:58:48;99317.77;;;31.28;30.68
58662;BME280;44432;49.786;22.760;2022-08-25T13:01:26;99316.48;;;31.29;30.40
58662;BME280;44432;49.786;22.760;2022-08-25T13:07:21;99312.36;;;31.33;30.10
58662;BME280;44432;49.786;22.760;2022-08-25T13:10:19;99307.90;;;31.35;29.79
58662;BME280;44432;49.786;22.760;2022-08-25T13:12:55;99305.40;;;31.35;29.38
58662;BME280;44432;49.786;22.760;2022-08-25T13:15:33;99303.58;;;31.33;29.31
58662;BME280;44432;49.786;22.760;2022-08-25T13:18:16;99309.66;;;31.34;29.29
58662;BME280;44432;49.786;22.760;2022-08-25T13:20:52;99302.14;;;31.32;29.24
58662;BME280;44432;49.786;22.760;2022-08-25T13:23:29;99299.19;;;31.36;29.21
58662;BME280;44432;49.786;22.760;2022-08-25T13:26:00;99299.85;;;31.43;28.91
58662;BME280;44432;49.786;22.760;2022-08-25T13:28:34;99300.61;;;31.48;28.81
58662;BME280;44432;49.786;22.760;2022-08-25T13:31:08;99299.10;;;31.53;28.79
58662;BME280;44432;49.786;22.760;2022-08-25T13:33:45;99297.15;;;31.56;28.64
58662;BME280;44432;49.786;22.760;2022-08-25T13:36:19;99294.63;;;31.59;28.68
58662;BME280;44432;49.786;22.760;2022-08-25T13:39:19;99293.34;;;31.61;28.49
58662;BME280;44432;49.786;22.760;2022-08-25T13:41:52;99289.20;;;31.63;28.47